Time;durP1;ratioP1;P1;durP2;ratioP2;P2;SDS_P1;SDS_P2;PMS_P1;PMS_P2;Temp;Humidity;BMP_temperature;BMP_pressure;BME280_temperature;BME280_humidity;BME280_pressure;Samples;Min_cycle;Max_cycle;Signal;HPM_P1;HPM_P2
2021/12/18 00:00:45;;;;;;;;;;;8.60;99.90;;;;;;4977487;28;19930;-85
2021/12/18 00:03:12;;;;;;;;;;;8.60;99.90;;;;;;4978353;28;19926;-86
2021/12/18 00:05:40;;;;;;;;;;;8.60;99.90;;;;;;4961284;28;19930;-85
2021/12/18 00:08:09;;;;;;;;;;;8.60;99.90;;;;;;4964046;28;19933;-86
2021/12/18 00:10:36;;;;;;;;;;;8.60;99.90;;;;;;4962418;28;19933;-85
2021/12/18 00:13:05;;;;;;;;;;;8.60;99.90;;;;;;4978316;28;19925;-85
2021/12/18 00:15:34;;;;;;;;;;;8.60;99.90;;;;;;4978225;28;19926;-85
2021/12/18 00:18:04;;;;;;;;;;;8.70;99.90;;;;;;4977811;28;20582;-85
2021/12/18 00:20:35;;;;;;;;;;;8.70;99.90;;;;;;4961113;28;20597;-85
2021/12/18 00:23:10;;;;;;;;;;;8.60;99.90;;;;;;4962397;28;20264;-85
2021/12/18 00:25:43;;;;;;;;;;;8.70;99.90;;;;;;4961379;28;19937;-86
2021/12/18 00:28:21;;;;;;;;;;;8.60;99.90;;;;;;4978400;28;19925;-86
2021/12/18 00:30:50;;;;;;;;;;;8.60;99.90;;;;;;4961999;28;19930;-86
2021/12/18 00:33:20;;;;;;;;;;;8.60;99.90;;;;;;4968870;28;20113;-86
2021/12/18 00:35:47;;;;;;;;;;;8.60;99.90;;;;;;4962382;28;19934;-85
2021/12/18 00:38:15;;;;;;;;;;;8.60;99.90;;;;;;4967093;28;19934;-86
2021/12/18 00:40:48;;;;;;;;;;;8.60;99.90;;;;;;4962512;28;19926;-85
2021/12/18 00:43:27;;;;;;;;;;;8.60;99.90;;;;;;4963675;28;19930;-85
2021/12/18 00:45:57;;;;;;;;;;;8.60;99.90;;;;;;4965447;28;20000;-85
2021/12/18 00:48:39;;;;;;;;;;;8.60;99.90;;;;;;4968861;28;19972;-84
2021/12/18 00:51:12;;;;;;;;;;;8.60;99.90;;;;;;4953487;28;20324;-86
2021/12/18 00:53:41;;;;;;;;;;;8.70;99.90;;;;;;4966956;28;20331;-87
2021/12/18 00:56:16;;;;;;;;;;;8.70;99.90;;;;;;4972042;28;19998;-85
2021/12/18 00:58:44;;;;;;;;;;;8.70;99.90;;;;;;4953060;28;19933;-84
2021/12/18 01:01:13;;;;;;;;;;;8.70;99.90;;;;;;4966867;28;19977;-85
2021/12/18 01:03:43;;;;;;;;;;;8.70;99.90;;;;;;4984645;28;20409;-85
2021/12/18 01:06:14;;;;;;;;;;;8.70;99.90;;;;;;4967408;28;19934;-86
2021/12/18 01:08:47;;;;;;;;;;;8.70;99.90;;;;;;4966930;28;19926;-85
2021/12/18 01:11:41;;;;;;;;;;;8.70;99.90;;;;;;4966565;28;19934;-85
2021/12/18 01:14:28;;;;;;;;;;;8.70;99.90;;;;;;4981856;28;20313;-85
2021/12/18 01:22:44;;;;;;;;;;;8.60;99.90;;;;;;4968916;28;19957;-86
2021/12/18 01:25:19;;;;;;;;;;;8.60;99.90;;;;;;4973672;28;19930;-86
2021/12/18 01:27:51;;;;;;;;;;;8.60;99.90;;;;;;4960064;28;19934;-85
2021/12/18 01:30:21;;;;;;;;;;;8.70;99.90;;;;;;4955372;28;19941;-86
2021/12/18 01:32:54;;;;;;;;;;;8.50;99.90;;;;;;4972066;28;20279;-85
2021/12/18 01:35:23;;;;;;;;;;;8.60;99.90;;;;;;4953647;28;19938;-85
2021/12/18 01:37:53;;;;;;;;;;;8.70;99.90;;;;;;4937417;28;20301;-85
2021/12/18 01:40:24;;;;;;;;;;;8.60;99.90;;;;;;4941620;28;19941;-86
2021/12/18 01:46:12;;;;;;;;;;;8.60;99.90;;;;;;4922509;28;20441;-85
2021/12/18 01:51:46;;;;;;;;;;;8.60;99.90;;;;;;4940527;28;19936;-85
2021/12/18 01:54:16;;;;;;;;;;;8.60;99.90;;;;;;4971977;28;19937;-86
2021/12/18 01:56:44;;;;;;;;;;;8.60;99.90;;;;;;4927557;28;19937;-85
2021/12/18 01:59:12;;;;;;;;;;;8.70;99.90;;;;;;4946371;28;19934;-84
2021/12/18 02:01:43;;;;;;;;;;;8.60;99.90;;;;;;4955865;28;19935;-86
2021/12/18 02:04:21;;;;;;;;;;;8.60;99.90;;;;;;4955711;28;19930;-86
2021/12/18 02:06:51;;;;;;;;;;;8.60;99.90;;;;;;4956989;28;19933;-87
2021/12/18 02:09:22;;;;;;;;;;;8.60;99.90;;;;;;4952101;28;20195;-86
2021/12/18 02:11:52;;;;;;;;;;;8.60;99.90;;;;;;4941480;28;19933;-85
2021/12/18 02:20:52;;;;;;;;;;;8.60;99.90;;;;;;4959942;28;20396;-85
2021/12/18 02:23:07;;;;;;;;;;;8.60;99.90;;;;;;4953221;28;19937;-86
2021/12/18 02:25:51;;;;;;;;;;;8.60;99.90;;;;;;4945403;28;20026;-87
2021/12/18 02:28:25;;;;;;;;;;;8.60;99.90;;;;;;4941244;28;19949;-86
2021/12/18 02:30:54;;;;;;;;;;;8.50;99.90;;;;;;4968791;28;19933;-86
2021/12/18 02:33:22;;;;;;;;;;;8.60;99.90;;;;;;4973967;28;20250;-87
2021/12/18 02:35:53;;;;;;;;;;;8.60;99.90;;;;;;4955476;28;20421;-85
2021/12/18 02:38:31;;;;;;;;;;;8.60;99.90;;;;;;4956546;28;19926;-85
2021/12/18 02:44:03;;;;;;;;;;;8.60;99.90;;;;;;4915527;29;19935;-85
2021/12/18 02:46:30;;;;;;;;;;;8.60;99.90;;;;;;4978708;28;19930;-85
2021/12/18 02:49:05;;;;;;;;;;;8.60;99.90;;;;;;4969760;28;19930;-86
2021/12/18 02:51:32;;;;;;;;;;;8.70;99.90;;;;;;4954100;28;19926;-85
2021/12/18 02:54:00;;;;;;;;;;;9.00;99.90;;;;;;4956328;28;20019;-87
2021/12/18 02:56:27;;;;;;;;;;;8.60;99.90;;;;;;4959434;28;19934;-86
2021/12/18 02:59:03;;;;;;;;;;;8.50;99.90;;;;;;4955705;28;19948;-85
2021/12/18 03:01:32;;;;;;;;;;;8.50;99.90;;;;;;4972665;28;19933;-86
2021/12/18 03:04:02;;;;;;;;;;;8.50;99.90;;;;;;4971205;28;19937;-86
2021/12/18 03:25:24;;;;;;;;;;;8.50;99.90;;;;;;4989049;28;19926;-85
2021/12/18 03:27:52;;;;;;;;;;;8.50;99.90;;;;;;4966235;28;19941;-85
2021/12/18 03:30:20;;;;;;;;;;;8.50;99.90;;;;;;4993114;28;20247;-85
2021/12/18 03:32:48;;;;;;;;;;;8.40;99.90;;;;;;4992854;28;19934;-85
2021/12/18 03:35:15;;;;;;;;;;;8.40;99.90;;;;;;4962768;28;19926;-84
2021/12/18 03:37:43;;;;;;;;;;;8.50;99.90;;;;;;4972202;28;19927;-85
2021/12/18 03:40:14;;;;;;;;;;;8.30;99.90;;;;;;4974554;28;19929;-85
2021/12/18 03:42:41;;;;;;;;;;;8.50;99.90;;;;;;4944987;28;19929;-86
2021/12/18 03:45:09;;;;;;;;;;;8.50;99.90;;;;;;4959682;28;19937;-86
2021/12/18 03:47:37;;;;;;;;;;;8.50;99.90;;;;;;4974309;28;19936;-85
2021/12/18 03:50:05;;;;;;;;;;;8.40;99.90;;;;;;4976846;28;20229;-85
2021/12/18 03:52:32;;;;;;;;;;;8.40;99.90;;;;;;4977190;28;19933;-85
2021/12/18 03:54:59;;;;;;;;;;;8.40;99.90;;;;;;4975242;28;20120;-86
2021/12/18 03:57:27;;;;;;;;;;;8.40;99.90;;;;;;4990126;28;19934;-85
2021/12/18 03:59:55;;;;;;;;;;;8.40;99.90;;;;;;4992171;28;20345;-85
2021/12/18 04:02:22;;;;;;;;;;;7.30;99.90;;;;;;4991701;28;19926;-84
2021/12/18 04:04:50;;;;;;;;;;;8.40;99.90;;;;;;4977458;28;19929;-86
2021/12/18 04:07:17;;;;;;;;;;;8.40;99.90;;;;;;4961645;28;19930;-85
2021/12/18 04:09:47;;;;;;;;;;;8.40;99.90;;;;;;4960997;28;19940;-85
2021/12/18 04:12:15;;;;;;;;;;;8.40;99.90;;;;;;4980091;28;19933;-84
2021/12/18 04:14:43;;;;;;;;;;;8.40;99.90;;;;;;4992445;28;19933;-83
2021/12/18 04:17:11;;;;;;;;;;;8.40;99.90;;;;;;4970626;28;20229;-86
2021/12/18 04:19:39;;;;;;;;;;;8.40;99.90;;;;;;4954898;28;19937;-85
2021/12/18 04:22:06;;;;;;;;;;;8.40;99.90;;;;;;4971114;28;19925;-85
2021/12/18 04:24:33;;;;;;;;;;;8.40;99.90;;;;;;4971085;28;19926;-85
2021/12/18 04:27:01;;;;;;;;;;;8.40;99.90;;;;;;4987056;28;19941;-86
2021/12/18 04:29:28;;;;;;;;;;;8.40;99.90;;;;;;5001394;28;19933;-84
2021/12/18 04:31:56;;;;;;;;;;;8.40;99.90;;;;;;4971692;28;20293;-86
2021/12/18 04:34:24;;;;;;;;;;;8.40;99.90;;;;;;4988970;28;19926;-84
2021/12/18 04:36:51;;;;;;;;;;;8.40;99.90;;;;;;4973719;28;19932;-86
2021/12/18 04:39:18;;;;;;;;;;;8.40;99.90;;;;;;4968761;28;19936;-84
2021/12/18 04:41:52;;;;;;;;;;;8.40;99.90;;;;;;4972001;28;19944;-86
2021/12/18 04:44:19;;;;;;;;;;;8.40;99.90;;;;;;4971756;28;19926;-84
2021/12/18 04:46:46;;;;;;;;;;;8.40;99.90;;;;;;4983655;28;19934;-85
2021/12/18 04:49:14;;;;;;;;;;;8.40;99.90;;;;;;4986951;28;21168;-86
2021/12/18 04:51:42;;;;;;;;;;;8.40;99.90;;;;;;4986751;28;19933;-85
2021/12/18 04:54:09;;;;;;;;;;;8.40;99.90;;;;;;4985995;28;19926;-85
2021/12/18 04:56:37;;;;;;;;;;;8.30;99.90;;;;;;4969688;28;19933;-84
2021/12/18 04:59:05;;;;;;;;;;;8.80;99.90;;;;;;4968284;28;19940;-85
2021/12/18 05:01:38;;;;;;;;;;;8.40;99.90;;;;;;4982958;28;19941;-85
2021/12/18 05:04:09;;;;;;;;;;;8.40;99.90;;;;;;4968562;28;21254;-84
2021/12/18 05:06:40;;;;;;;;;;;8.40;99.90;;;;;;5000294;28;19929;-86
2021/12/18 05:09:08;;;;;;;;;;;8.40;99.90;;;;;;5000009;28;19932;-84
2021/12/18 05:11:39;;;;;;;;;;;8.40;99.90;;;;;;4969226;28;19926;-85
2021/12/18 05:14:07;;;;;;;;;;;8.40;99.90;;;;;;4968827;28;19934;-85
2021/12/18 05:16:34;;;;;;;;;;;8.80;99.90;;;;;;4966799;28;19926;-85
2021/12/18 05:19:03;;;;;;;;;;;8.40;99.90;;;;;;4970470;28;19926;-84
2021/12/18 05:21:30;;;;;;;;;;;9.00;99.90;;;;;;4986805;28;19934;-85
2021/12/18 05:23:58;;;;;;;;;;;8.50;99.90;;;;;;4985245;28;20370;-85
2021/12/18 05:26:26;;;;;;;;;;;8.50;99.90;;;;;;4972537;28;19925;-85
2021/12/18 05:28:54;;;;;;;;;;;8.50;99.90;;;;;;4985494;28;19933;-85
2021/12/18 05:31:21;;;;;;;;;;;8.50;99.90;;;;;;4982027;28;19926;-84
2021/12/18 05:33:52;;;;;;;;;;;8.30;99.90;;;;;;4980495;28;19944;-85
2021/12/18 05:39:11;;;;;;;;;;;8.50;99.90;;;;;;4946049;28;19930;-85
2021/12/18 05:41:39;;;;;;;;;;;8.50;99.90;;;;;;4962464;28;19926;-85
2021/12/18 05:44:06;;;;;;;;;;;8.50;99.90;;;;;;4960136;28;19926;-84
2021/12/18 05:46:35;;;;;;;;;;;8.60;99.90;;;;;;4961436;28;20101;-85
2021/12/18 05:49:03;;;;;;;;;;;8.50;99.90;;;;;;4966039;28;19956;-86
2021/12/18 05:51:31;;;;;;;;;;;8.40;99.90;;;;;;4964839;28;19942;-85
2021/12/18 05:53:59;;;;;;;;;;;8.50;99.90;;;;;;4963693;28;19929;-84
2021/12/18 05:56:26;;;;;;;;;;;8.50;99.90;;;;;;4993689;28;19938;-85
2021/12/18 05:58:54;;;;;;;;;;;8.50;99.90;;;;;;4978906;28;19929;-84
2021/12/18 06:01:22;;;;;;;;;;;8.50;99.90;;;;;;4946792;28;19937;-85
2021/12/18 06:03:50;;;;;;;;;;;8.50;99.90;;;;;;4960757;28;19926;-85
2021/12/18 06:06:17;;;;;;;;;;;8.50;99.90;;;;;;4980965;28;19933;-85
2021/12/18 06:08:45;;;;;;;;;;;8.50;99.90;;;;;;4990231;28;19934;-85
2021/12/18 06:11:17;;;;;;;;;;;8.50;99.90;;;;;;4961706;28;19926;-83
2021/12/18 06:13:45;;;;;;;;;;;8.50;99.90;;;;;;4974500;28;19930;-85
2021/12/18 06:16:13;;;;;;;;;;;9.10;99.90;;;;;;4973282;28;19929;-85
2021/12/18 06:18:44;;;;;;;;;;;8.60;99.90;;;;;;4958589;28;20009;-85
2021/12/18 06:21:15;;;;;;;;;;;8.50;99.90;;;;;;4971969;28;19934;-85
2021/12/18 06:23:43;;;;;;;;;;;8.50;99.90;;;;;;4971576;28;20383;-85
2021/12/18 06:26:10;;;;;;;;;;;8.50;99.90;;;;;;4970579;28;19940;-85
2021/12/18 06:28:38;;;;;;;;;;;8.50;99.90;;;;;;4988773;28;19929;-85
2021/12/18 06:31:25;;;;;;;;;;;8.60;99.90;;;;;;4956712;28;19936;-85
2021/12/18 06:33:53;;;;;;;;;;;8.60;99.90;;;;;;4954562;28;19925;-85
2021/12/18 06:36:21;;;;;;;;;;;8.90;99.90;;;;;;4955815;28;19930;-85
2021/12/18 06:38:49;;;;;;;;;;;8.50;99.90;;;;;;4956933;28;19925;-85
2021/12/18 06:41:16;;;;;;;;;;;8.60;99.90;;;;;;4971044;28;19929;-85
2021/12/18 06:43:44;;;;;;;;;;;8.60;99.90;;;;;;4946680;28;19926;-84
2021/12/18 06:46:11;;;;;;;;;;;8.60;99.90;;;;;;4969429;28;19926;-85
2021/12/18 06:48:39;;;;;;;;;;;8.60;99.90;;;;;;4950130;28;19926;-84
2021/12/18 06:51:06;;;;;;;;;;;8.60;99.90;;;;;;4950722;28;19934;-85
2021/12/18 06:53:34;;;;;;;;;;;8.60;99.90;;;;;;4957084;28;20735;-85
2021/12/18 06:56:03;;;;;;;;;;;8.60;99.90;;;;;;4949770;28;20763;-84
2021/12/18 06:58:31;;;;;;;;;;;8.60;99.90;;;;;;4954095;28;19930;-85
2021/12/18 07:00:59;;;;;;;;;;;8.60;99.90;;;;;;4952562;28;19926;-85
2021/12/18 07:03:27;;;;;;;;;;;8.60;99.90;;;;;;4968270;28;19930;-85
2021/12/18 07:05:54;;;;;;;;;;;8.60;99.90;;;;;;4952313;28;19932;-85
2021/12/18 07:08:22;;;;;;;;;;;8.50;99.90;;;;;;4969853;28;19930;-85
2021/12/18 07:10:49;;;;;;;;;;;8.50;99.90;;;;;;4968747;28;19933;-84
2021/12/18 07:13:17;;;;;;;;;;;8.60;99.90;;;;;;4985300;28;19925;-85
2021/12/18 07:15:44;;;;;;;;;;;8.60;99.90;;;;;;4952711;28;19925;-85
2021/12/18 07:18:11;;;;;;;;;;;8.60;99.90;;;;;;4953473;28;19926;-84
2021/12/18 07:20:39;;;;;;;;;;;8.60;99.90;;;;;;4969207;28;19929;-85
2021/12/18 07:23:07;;;;;;;;;;;8.60;99.90;;;;;;4953787;28;19944;-86
2021/12/18 07:25:35;;;;;;;;;;;6.90;99.90;;;;;;4980391;28;19940;-84
2021/12/18 07:28:02;;;;;;;;;;;9.10;99.90;;;;;;4968127;28;19933;-84
2021/12/18 07:30:29;;;;;;;;;;;8.60;99.90;;;;;;4977714;28;19926;-85
2021/12/18 07:32:57;;;;;;;;;;;8.60;99.90;;;;;;4966600;28;20332;-84
2021/12/18 07:35:25;;;;;;;;;;;8.60;99.90;;;;;;4968318;28;19933;-85
2021/12/18 07:37:52;;;;;;;;;;;8.60;99.90;;;;;;4963920;28;19934;-86
2021/12/18 07:40:20;;;;;;;;;;;8.60;99.90;;;;;;4967046;28;19934;-86
2021/12/18 07:42:47;;;;;;;;;;;8.60;99.90;;;;;;4966101;28;19933;-85
2021/12/18 07:45:17;;;;;;;;;;;8.60;99.90;;;;;;4969085;28;19954;-84
2021/12/18 07:47:44;;;;;;;;;;;9.30;99.90;;;;;;4982107;28;19926;-86
2021/12/18 07:50:18;;;;;;;;;;;8.60;99.90;;;;;;4964305;28;19934;-86
2021/12/18 07:52:46;;;;;;;;;;;8.60;99.90;;;;;;4969896;28;19929;-84
2021/12/18 07:55:14;;;;;;;;;;;8.60;99.90;;;;;;4970210;28;19926;-85
2021/12/18 07:57:42;;;;;;;;;;;8.60;99.90;;;;;;4969907;28;20617;-85
2021/12/18 08:00:12;;;;;;;;;;;8.60;99.90;;;;;;4970772;28;20419;-85
2021/12/18 08:02:39;;;;;;;;;;;8.50;99.90;;;;;;4988839;28;19934;-86
2021/12/18 08:05:08;;;;;;;;;;;8.60;99.90;;;;;;4974115;28;19933;-85
2021/12/18 08:07:35;;;;;;;;;;;8.60;99.90;;;;;;4973550;28;20336;-84
2021/12/18 08:10:03;;;;;;;;;;;8.40;99.90;;;;;;4976102;28;19930;-85
2021/12/18 08:12:30;;;;;;;;;;;8.60;99.90;;;;;;4972837;28;20321;-85
2021/12/18 08:14:58;;;;;;;;;;;8.60;99.90;;;;;;4967844;28;19941;-85
2021/12/18 08:17:26;;;;;;;;;;;8.60;99.90;;;;;;4951313;28;19929;-86
2021/12/18 08:19:53;;;;;;;;;;;8.60;99.90;;;;;;4965259;28;19934;-85
2021/12/18 08:22:21;;;;;;;;;;;8.60;99.90;;;;;;4984602;28;19933;-86
2021/12/18 08:24:48;;;;;;;;;;;8.60;99.90;;;;;;4966712;28;20380;-85
2021/12/18 08:27:16;;;;;;;;;;;8.60;99.90;;;;;;4953457;28;19930;-85
2021/12/18 08:29:45;;;;;;;;;;;8.60;99.90;;;;;;4974699;28;19948;-85
2021/12/18 08:32:13;;;;;;;;;;;8.70;99.90;;;;;;4971268;28;19933;-86
2021/12/18 08:34:40;;;;;;;;;;;8.60;99.90;;;;;;4978446;28;19942;-86
2021/12/18 08:37:08;;;;;;;;;;;8.70;99.90;;;;;;4960718;28;19925;-85
2021/12/18 08:39:35;;;;;;;;;;;8.70;99.90;;;;;;4976511;28;19926;-85
2021/12/18 08:42:05;;;;;;;;;;;8.70;99.90;;;;;;4973433;28;19933;-84
2021/12/18 08:44:33;;;;;;;;;;;9.30;99.90;;;;;;4982787;28;20123;-85
2021/12/18 08:47:00;;;;;;;;;;;8.80;99.90;;;;;;4981591;28;19937;-85
2021/12/18 08:49:28;;;;;;;;;;;8.70;99.90;;;;;;4952591;28;20310;-87
2021/12/18 08:51:57;;;;;;;;;;;7.80;99.90;;;;;;4955829;28;20056;-85
2021/12/18 08:54:25;;;;;;;;;;;8.50;99.90;;;;;;4936511;28;19941;-88
2021/12/18 08:57:08;;;;;;;;;;;8.70;99.90;;;;;;4986598;28;19933;-86
2021/12/18 08:59:39;;;;;;;;;;;8.80;99.90;;;;;;4956491;28;20038;-85
2021/12/18 09:02:08;;;;;;;;;;;8.80;99.90;;;;;;4937877;28;19945;-86
2021/12/18 09:04:36;;;;;;;;;;;8.80;99.90;;;;;;4957225;28;20274;-86
2021/12/18 09:07:04;;;;;;;;;;;8.80;99.90;;;;;;4956878;28;19930;-85
2021/12/18 09:09:38;;;;;;;;;;;8.90;99.90;;;;;;4952699;28;19926;-87
2021/12/18 09:12:07;;;;;;;;;;;8.80;99.90;;;;;;4967004;28;19953;-84
2021/12/18 09:14:35;;;;;;;;;;;9.00;99.90;;;;;;4966881;28;20046;-86
2021/12/18 09:17:02;;;;;;;;;;;8.70;99.90;;;;;;4966642;28;19925;-83
2021/12/18 09:19:30;;;;;;;;;;;8.70;99.90;;;;;;4952622;28;19934;-86
2021/12/18 09:21:58;;;;;;;;;;;8.80;99.90;;;;;;4950963;28;19934;-86
2021/12/18 09:24:27;;;;;;;;;;;8.70;99.90;;;;;;4952821;28;19941;-86
2021/12/18 09:26:54;;;;;;;;;;;8.80;99.90;;;;;;4938191;28;19945;-87
2021/12/18 09:29:22;;;;;;;;;;;8.60;99.90;;;;;;4974797;28;19926;-88
2021/12/18 09:31:49;;;;;;;;;;;8.80;99.90;;;;;;4959624;28;19932;-89
2021/12/18 09:34:17;;;;;;;;;;;8.70;99.90;;;;;;4961434;28;19914;-86
2021/12/18 09:36:45;;;;;;;;;;;8.80;99.90;;;;;;4992015;28;20404;-86
2021/12/18 09:39:14;;;;;;;;;;;8.80;99.90;;;;;;4966050;28;19933;-86
2021/12/18 09:41:50;;;;;;;;;;;8.80;99.90;;;;;;4975828;28;19926;-87
2021/12/18 09:44:25;;;;;;;;;;;8.80;99.90;;;;;;4955038;28;19930;-87
2021/12/18 09:47:03;;;;;;;;;;;8.80;99.90;;;;;;4963425;28;19958;-89
2021/12/18 09:49:35;;;;;;;;;;;8.80;99.90;;;;;;4986574;28;19926;-90
2021/12/18 09:56:01;;;;;;;;;;;8.80;99.90;;;;;;4984596;28;19966;-90
2021/12/18 09:58:45;;;;;;;;;;;8.90;99.90;;;;;;4985509;28;20005;-89
2021/12/18 10:01:20;;;;;;;;;;;8.80;99.90;;;;;;5006494;28;19932;-89
2021/12/18 10:04:09;;;;;;;;;;;9.10;99.90;;;;;;4970778;28;19929;-88
2021/12/18 10:07:05;;;;;;;;;;;8.90;99.90;;;;;;4963157;28;19930;-90
2021/12/18 10:09:53;;;;;;;;;;;9.20;99.90;;;;;;4971676;28;19958;-90
2021/12/18 10:12:40;;;;;;;;;;;8.90;99.90;;;;;;4956526;28;20043;-90
2021/12/18 10:15:14;;;;;;;;;;;8.80;99.90;;;;;;4992632;28;19930;-90
2021/12/18 10:17:46;;;;;;;;;;;9.00;99.90;;;;;;4980847;28;19926;-87
2021/12/18 10:20:22;;;;;;;;;;;8.90;99.90;;;;;;4974309;28;19933;-89
2021/12/18 10:22:54;;;;;;;;;;;8.00;99.90;;;;;;4963699;28;19941;-88
2021/12/18 10:25:26;;;;;;;;;;;8.80;99.90;;;;;;4964427;28;20405;-88
2021/12/18 10:27:58;;;;;;;;;;;8.90;99.90;;;;;;4950660;28;19926;-88
2021/12/18 10:30:26;;;;;;;;;;;8.90;99.90;;;;;;4962791;28;19929;-89
2021/12/18 10:32:54;;;;;;;;;;;8.90;99.90;;;;;;4948862;28;20384;-89
2021/12/18 10:35:35;;;;;;;;;;;8.90;99.90;;;;;;4948123;28;19936;-88
2021/12/18 10:38:03;;;;;;;;;;;8.90;99.90;;;;;;4958196;28;19933;-88
2021/12/18 10:40:47;;;;;;;;;;;8.90;99.90;;;;;;4956232;28;20013;-88
2021/12/18 10:43:17;;;;;;;;;;;8.80;99.90;;;;;;4956726;28;19930;-88
2021/12/18 10:45:45;;;;;;;;;;;9.00;99.90;;;;;;4949856;28;19933;-87
2021/12/18 10:48:13;;;;;;;;;;;8.90;99.90;;;;;;4953506;28;19934;-88
2021/12/18 10:50:46;;;;;;;;;;;8.90;99.90;;;;;;4955103;28;20381;-89
2021/12/18 10:53:19;;;;;;;;;;;8.80;99.90;;;;;;4972920;28;19937;-88
2021/12/18 10:55:47;;;;;;;;;;;8.60;99.90;;;;;;4957602;28;19940;-87
2021/12/18 10:58:24;;;;;;;;;;;8.90;99.90;;;;;;4955917;28;19933;-87
2021/12/18 11:00:57;;;;;;;;;;;8.90;99.90;;;;;;4952877;28;19930;-88
2021/12/18 11:03:27;;;;;;;;;;;8.90;99.90;;;;;;4937179;28;20189;-88
2021/12/18 11:06:04;;;;;;;;;;;9.00;99.90;;;;;;4940326;28;19930;-89
2021/12/18 11:08:37;;;;;;;;;;;8.90;99.90;;;;;;4937447;28;19948;-86
2021/12/18 11:13:53;;;;;;;;;;;8.90;99.90;;;;;;4936840;28;20038;-90
2021/12/18 11:16:22;;;;;;;;;;;9.00;99.90;;;;;;4963659;28;19929;-87
2021/12/18 11:18:50;;;;;;;;;;;9.00;99.90;;;;;;4950820;28;19929;-88
2021/12/18 11:21:18;;;;;;;;;;;9.00;99.90;;;;;;4953613;28;19936;-86
2021/12/18 11:23:50;;;;;;;;;;;8.50;99.90;;;;;;4949033;28;20510;-88
2021/12/18 11:26:21;;;;;;;;;;;8.70;99.90;;;;;;4608865;28;10000451;-87
2021/12/18 11:28:51;;;;;;;;;;;8.90;99.90;;;;;;4592521;28;9999726;-88
2021/12/18 11:31:26;;;;;;;;;;;9.00;99.90;;;;;;4957179;28;19933;-87
2021/12/18 11:33:54;;;;;;;;;;;8.90;99.90;;;;;;4953969;28;20068;-88
2021/12/18 11:36:23;;;;;;;;;;;8.90;99.90;;;;;;4968505;28;19929;-88
2021/12/18 11:38:51;;;;;;;;;;;8.90;99.90;;;;;;4988591;28;19937;-88
2021/12/18 11:41:20;;;;;;;;;;;9.00;99.90;;;;;;4952966;28;20528;-89
2021/12/18 11:43:48;;;;;;;;;;;9.10;99.90;;;;;;4941139;28;19926;-88
2021/12/18 11:46:28;;;;;;;;;;;9.20;99.90;;;;;;4961271;28;19933;-87
2021/12/18 11:49:04;;;;;;;;;;;9.00;99.90;;;;;;4958042;28;19930;-88
2021/12/18 11:51:31;;;;;;;;;;;9.00;99.90;;;;;;4953869;28;19937;-88
2021/12/18 11:54:02;;;;;;;;;;;9.00;99.90;;;;;;4954471;28;19936;-88
2021/12/18 11:56:47;;;;;;;;;;;8.10;99.90;;;;;;4939651;28;19933;-88
2021/12/18 11:59:34;;;;;;;;;;;9.00;99.90;;;;;;4956356;28;19930;-88
2021/12/18 12:02:02;;;;;;;;;;;9.00;99.90;;;;;;4955389;28;19936;-87
2021/12/18 12:04:48;;;;;;;;;;;8.80;99.90;;;;;;4955171;28;19932;-88
2021/12/18 12:07:21;;;;;;;;;;;9.10;99.90;;;;;;4953644;28;19941;-87
2021/12/18 12:10:11;;;;;;;;;;;9.00;99.90;;;;;;4954168;28;19930;-86
2021/12/18 12:12:47;;;;;;;;;;;9.10;99.90;;;;;;4942974;28;19933;-89
2021/12/18 12:15:18;;;;;;;;;;;9.10;99.90;;;;;;4962855;28;19930;-87
2021/12/18 12:18:08;;;;;;;;;;;8.90;99.90;;;;;;4957885;28;19926;-88
2021/12/18 12:20:41;;;;;;;;;;;9.20;99.90;;;;;;4956734;28;20293;-88
2021/12/18 12:23:12;;;;;;;;;;;9.10;99.90;;;;;;4958007;28;19937;-88
2021/12/18 12:25:42;;;;;;;;;;;9.00;99.90;;;;;;4942015;28;19937;-87
2021/12/18 12:28:14;;;;;;;;;;;9.00;99.90;;;;;;4938627;28;20380;-87
2021/12/18 12:30:48;;;;;;;;;;;9.00;99.90;;;;;;4957044;28;19926;-87
2021/12/18 12:33:24;;;;;;;;;;;9.00;99.90;;;;;;4948529;28;20324;-88
2021/12/18 12:35:55;;;;;;;;;;;9.00;99.90;;;;;;4950752;28;20386;-88
2021/12/18 12:38:25;;;;;;;;;;;9.10;99.90;;;;;;4958222;28;19926;-88
2021/12/18 12:41:17;;;;;;;;;;;9.10;99.90;;;;;;4943616;28;19932;-86
2021/12/18 12:43:45;;;;;;;;;;;9.10;99.90;;;;;;4954939;28;20281;-89
2021/12/18 12:46:17;;;;;;;;;;;9.10;99.90;;;;;;4937230;28;20278;-87
2021/12/18 12:48:59;;;;;;;;;;;9.00;99.90;;;;;;4953596;28;19967;-87
2021/12/18 12:51:47;;;;;;;;;;;9.10;99.90;;;;;;4970521;28;19932;-87
2021/12/18 12:54:36;;;;;;;;;;;9.00;99.90;;;;;;4951380;28;19942;-88
2021/12/18 12:57:22;;;;;;;;;;;9.00;99.90;;;;;;4941303;28;19926;-89
2021/12/18 12:59:51;;;;;;;;;;;9.00;99.90;;;;;;4957779;28;20405;-89
2021/12/18 13:02:18;;;;;;;;;;;9.00;99.90;;;;;;4942085;28;19933;-88
2021/12/18 13:04:47;;;;;;;;;;;9.10;99.90;;;;;;4938482;28;20311;-86
2021/12/18 13:07:15;;;;;;;;;;;8.90;99.90;;;;;;4955772;28;19930;-88
2021/12/18 13:09:49;;;;;;;;;;;9.00;99.90;;;;;;4933285;28;19925;-90
2021/12/18 13:12:26;;;;;;;;;;;9.00;99.90;;;;;;4955739;28;20281;-87
2021/12/18 13:14:54;;;;;;;;;;;9.00;99.90;;;;;;4955183;28;19925;-88
2021/12/18 13:17:23;;;;;;;;;;;9.00;99.90;;;;;;4952312;28;19930;-88
2021/12/18 13:20:01;;;;;;;;;;;9.00;99.90;;;;;;4958336;28;19931;-87
2021/12/18 13:22:32;;;;;;;;;;;8.80;99.90;;;;;;4962865;28;19926;-89
2021/12/18 13:25:01;;;;;;;;;;;8.90;99.90;;;;;;4945074;28;19926;-89
2021/12/18 13:27:30;;;;;;;;;;;8.80;99.90;;;;;;4944540;28;19933;-88
2021/12/18 13:30:08;;;;;;;;;;;8.90;99.90;;;;;;4620899;28;9999890;-87
2021/12/18 13:32:36;;;;;;;;;;;8.90;99.90;;;;;;4955228;28;19930;-88
2021/12/18 13:35:16;;;;;;;;;;;9.00;99.90;;;;;;4959912;28;20040;-87
2021/12/18 13:38:01;;;;;;;;;;;9.00;99.90;;;;;;4964879;28;19926;-89
2021/12/18 13:40:44;;;;;;;;;;;9.00;99.90;;;;;;4949054;28;20266;-88
2021/12/18 13:43:20;;;;;;;;;;;8.10;99.90;;;;;;4927970;28;19936;-89
2021/12/18 13:45:59;;;;;;;;;;;8.90;99.90;;;;;;4979504;28;19937;-88
2021/12/18 13:48:29;;;;;;;;;;;8.90;99.90;;;;;;4961662;28;19930;-89
2021/12/18 13:51:09;;;;;;;;;;;8.90;99.90;;;;;;4957931;28;19930;-87
2021/12/18 13:53:54;;;;;;;;;;;9.70;99.90;;;;;;4971769;28;19937;-87
2021/12/18 13:56:25;;;;;;;;;;;8.90;99.90;;;;;;4970118;28;19941;-87
2021/12/18 13:58:53;;;;;;;;;;;9.00;99.90;;;;;;4953466;28;19929;-87
2021/12/18 14:01:24;;;;;;;;;;;9.00;99.90;;;;;;4989877;28;19941;-89
2021/12/18 14:03:53;;;;;;;;;;;8.80;99.90;;;;;;4946083;28;19930;-88
2021/12/18 14:06:22;;;;;;;;;;;9.00;99.90;;;;;;4959487;28;19929;-88
2021/12/18 14:09:02;;;;;;;;;;;9.10;99.90;;;;;;4951286;28;19926;-89
2021/12/18 14:11:38;;;;;;;;;;;8.90;99.90;;;;;;4961866;28;19934;-90
2021/12/18 14:14:13;;;;;;;;;;;8.40;99.90;;;;;;4948553;28;19942;-89
2021/12/18 14:16:51;;;;;;;;;;;8.90;99.90;;;;;;4927082;28;19926;-87
2021/12/18 14:19:31;;;;;;;;;;;8.90;99.90;;;;;;4942525;28;20429;-88
2021/12/18 14:21:59;;;;;;;;;;;8.90;99.90;;;;;;4973042;28;19926;-89
2021/12/18 14:24:27;;;;;;;;;;;8.90;99.90;;;;;;4940184;28;19930;-87
2021/12/18 14:27:05;;;;;;;;;;;8.80;99.90;;;;;;4950924;28;20009;-88
2021/12/18 14:29:45;;;;;;;;;;;8.90;99.90;;;;;;4963897;28;19952;-88
2021/12/18 14:32:12;;;;;;;;;;;8.90;99.90;;;;;;4975688;28;19936;-87
2021/12/18 14:34:44;;;;;;;;;;;8.90;99.90;;;;;;4995505;28;19930;-88
2021/12/18 14:37:20;;;;;;;;;;;8.90;99.90;;;;;;4968086;28;19926;-89
2021/12/18 14:39:55;;;;;;;;;;;8.90;99.90;;;;;;4962743;28;19930;-86
2021/12/18 14:42:34;;;;;;;;;;;8.90;99.90;;;;;;4936509;28;19926;-87
2021/12/18 14:45:08;;;;;;;;;;;8.90;99.90;;;;;;4954172;28;19949;-86
2021/12/18 14:47:42;;;;;;;;;;;9.00;99.90;;;;;;4958875;28;19945;-88
2021/12/18 14:50:15;;;;;;;;;;;8.90;99.90;;;;;;4978350;28;19933;-88
2021/12/18 14:52:59;;;;;;;;;;;8.90;99.90;;;;;;4947439;28;19934;-87
2021/12/18 14:55:30;;;;;;;;;;;8.90;99.90;;;;;;4966989;28;19922;-87
2021/12/18 14:58:07;;;;;;;;;;;8.60;99.90;;;;;;4962479;28;19926;-87
2021/12/18 15:00:41;;;;;;;;;;;8.90;99.90;;;;;;4958765;28;19926;-88
2021/12/18 15:03:29;;;;;;;;;;;8.90;99.90;;;;;;4963464;28;19925;-88
2021/12/18 15:06:17;;;;;;;;;;;9.20;99.90;;;;;;4942225;28;19941;-88
2021/12/18 15:08:49;;;;;;;;;;;8.30;99.90;;;;;;4961571;28;20305;-89
2021/12/18 15:11:23;;;;;;;;;;;9.00;99.90;;;;;;4962070;28;20398;-88
2021/12/18 15:13:51;;;;;;;;;;;8.90;99.90;;;;;;4973019;28;20302;-86
2021/12/18 15:16:32;;;;;;;;;;;8.90;99.90;;;;;;4970038;28;20706;-88
2021/12/18 15:19:02;;;;;;;;;;;8.90;99.90;;;;;;4957685;28;19933;-89
2021/12/18 15:21:31;;;;;;;;;;;8.90;99.90;;;;;;4955018;28;19934;-87
2021/12/18 15:24:01;;;;;;;;;;;8.90;99.90;;;;;;4941089;28;19934;-87
2021/12/18 15:26:29;;;;;;;;;;;9.00;99.90;;;;;;4956792;28;19926;-89
2021/12/18 15:28:59;;;;;;;;;;;9.00;99.90;;;;;;4970880;28;19944;-88
2021/12/18 15:31:27;;;;;;;;;;;9.00;99.90;;;;;;4987362;28;19940;-88
2021/12/18 15:33:57;;;;;;;;;;;9.00;99.90;;;;;;4962197;28;20301;-88
2021/12/18 15:36:26;;;;;;;;;;;8.90;99.90;;;;;;4940247;28;19926;-87
2021/12/18 15:38:54;;;;;;;;;;;9.00;99.90;;;;;;4956932;28;19937;-88
2021/12/18 15:41:26;;;;;;;;;;;8.90;99.90;;;;;;4944253;28;19937;-88